Time;durP1;ratioP1;P1;durP2;ratioP2;P2;SDS_P1;SDS_P2;PMS_P1;PMS_P2;Temp;Humidity;BMP_temperature;BMP_pressure;BME280_temperature;BME280_humidity;BME280_pressure;Samples;Min_cycle;Max_cycle;Signal;HPM_P1;HPM_P2
2022/08/22 00:01:40;;;;;;;7.18;3.88;;;13.90;99.90;;;;;;5045674;28;20390;-37
2022/08/22 00:04:41;;;;;;;11.25;4.22;;;13.90;99.90;;;;;;5045793;28;20106;-37
2022/08/22 00:07:28;;;;;;;7.32;3.17;;;13.90;99.90;;;;;;5045259;28;20065;-36
2022/08/22 00:10:09;;;;;;;11.98;4.45;;;14.40;99.90;;;;;;5045466;28;20251;-37
2022/08/22 00:12:44;;;;;;;8.43;3.78;;;14.00;99.90;;;;;;5045438;28;20033;-37
2022/08/22 00:15:13;;;;;;;9.68;3.15;;;14.00;99.90;;;;;;5045302;28;20037;-37
2022/08/22 00:18:01;;;;;;;8.07;3.13;;;13.80;99.90;;;;;;5045810;28;20045;-37
2022/08/22 00:20:47;;;;;;;11.10;3.42;;;13.80;99.90;;;;;;5045841;28;20438;-37
2022/08/22 00:23:27;;;;;;;7.97;3.55;;;13.90;99.90;;;;;;5047076;28;20532;-37
2022/08/22 00:26:24;;;;;;;7.82;3.42;;;13.90;99.90;;;;;;5048083;28;20045;-37
2022/08/22 00:29:03;;;;;;;6.22;2.95;;;13.90;99.90;;;;;;5049489;28;20049;-37
2022/08/22 00:31:35;;;;;;;8.35;3.70;;;14.30;99.90;;;;;;5049505;28;20051;-37
2022/08/22 00:34:12;;;;;;;7.22;3.35;;;13.80;99.90;;;;;;5049354;28;20060;-37
2022/08/22 00:36:49;;;;;;;10.05;4.22;;;14.20;99.90;;;;;;5049623;28;20056;-37
2022/08/22 00:39:27;;;;;;;8.45;3.78;;;14.10;99.90;;;;;;5049091;28;20041;-37
2022/08/22 00:42:14;;;;;;;10.20;3.83;;;14.10;99.90;;;;;;5049073;28;20033;-37
2022/08/22 00:44:55;;;;;;;5.65;3.85;;;13.80;99.90;;;;;;5049324;28;20037;-37
2022/08/22 00:47:32;;;;;;;6.65;3.90;;;13.60;99.90;;;;;;5048829;28;20040;-37
2022/08/22 00:50:19;;;;;;;14.80;4.18;;;13.80;99.90;;;;;;5048484;28;20045;-37
2022/08/22 00:53:23;;;;;;;10.82;4.70;;;13.70;99.90;;;;;;5048878;28;20047;-37
2022/08/22 00:56:10;;;;;;;9.35;4.00;;;13.60;99.90;;;;;;5048546;28;20463;-37
2022/08/22 00:59:00;;;;;;;7.32;4.35;;;13.70;99.90;;;;;;5048683;28;20068;-37
2022/08/22 01:01:35;;;;;;;8.68;4.85;;;13.80;99.90;;;;;;5048582;28;20048;-37
2022/08/22 01:04:27;;;;;;;10.57;4.13;;;14.30;99.90;;;;;;5048056;28;20062;-37
2022/08/22 01:07:18;;;;;;;8.95;4.93;;;13.80;99.90;;;;;;5044945;28;20578;-37
2022/08/22 01:10:02;;;;;;;10.98;4.90;;;13.70;99.90;;;;;;5048195;28;20506;-37
2022/08/22 01:12:45;;;;;;;9.23;5.50;;;13.90;99.90;;;;;;5048837;28;20873;-36
2022/08/22 01:15:21;;;;;;;5.82;2.80;;;13.70;99.90;;;;;;5048955;28;20037;-37
2022/08/22 01:17:47;;;;;;;5.15;2.15;;;13.50;99.90;;;;;;5048822;28;20487;-37
2022/08/22 01:20:47;;;;;;;5.60;2.35;;;13.70;99.90;;;;;;5048375;28;20045;-36
2022/08/22 01:23:25;;;;;;;8.70;3.92;;;13.70;99.90;;;;;;5028791;28;20057;-37
2022/08/22 01:26:09;;;;;;;6.95;3.75;;;14.00;99.90;;;;;;5048162;28;20041;-36
2022/08/22 01:28:40;;;;;;;7.35;3.80;;;13.60;99.90;;;;;;5048314;28;20142;-37
2022/08/22 01:31:44;;;;;;;6.70;3.75;;;13.60;99.90;;;;;;5048552;28;20045;-37
2022/08/22 01:34:47;;;;;;;7.47;3.67;;;14.00;99.90;;;;;;5035925;28;20403;-36
2022/08/22 01:37:22;;;;;;;5.63;3.50;;;13.50;99.90;;;;;;5048558;28;20090;-36
2022/08/22 01:40:15;;;;;;;6.35;4.03;;;13.40;99.90;;;;;;5048111;28;20052;-36
2022/08/22 01:42:59;;;;;;;9.95;4.10;;;13.40;99.90;;;;;;5048016;28;20426;-37
2022/08/22 01:45:53;;;;;;;9.13;4.55;;;13.80;99.90;;;;;;5047713;28;20041;-37
2022/08/22 01:48:34;;;;;;;8.82;3.60;;;13.50;99.90;;;;;;5047626;28;20152;-37
2022/08/22 01:51:43;;;;;;;7.60;4.20;;;13.50;99.90;;;;;;5047930;28;20070;-36
2022/08/22 01:54:30;;;;;;;8.93;4.45;;;13.40;99.90;;;;;;5047962;28;20566;-37
2022/08/22 01:57:06;;;;;;;7.00;3.15;;;13.90;99.90;;;;;;5047664;28;20044;-37
2022/08/22 01:59:34;;;;;;;6.40;2.97;;;13.40;99.90;;;;;;5047416;28;20053;-37
2022/08/22 02:02:22;;;;;;;3.65;2.50;;;13.80;99.90;;;;;;5047543;28;20522;-37
2022/08/22 02:04:50;;;;;;;3.30;1.35;;;13.40;99.90;;;;;;5047509;28;20082;-37
2022/08/22 02:07:26;;;;;;;6.63;2.17;;;14.00;99.90;;;;;;5047151;28;20057;-36
2022/08/22 02:10:07;;;;;;;4.80;3.10;;;13.40;99.90;;;;;;5047383;28;20048;-37
2022/08/22 02:13:03;;;;;;;3.95;2.38;;;13.60;99.90;;;;;;5047781;28;20036;-37
2022/08/22 02:15:38;;;;;;;7.18;2.88;;;13.60;99.90;;;;;;5047787;28;20044;-37
2022/08/22 02:18:04;;;;;;;3.67;2.78;;;13.90;99.90;;;;;;5047689;28;20041;-37
2022/08/22 02:21:01;;;;;;;8.20;2.67;;;13.40;99.90;;;;;;5047039;28;20083;-37
2022/08/22 02:23:49;;;;;;;4.93;2.30;;;13.70;99.90;;;;;;5047463;28;20127;-37
2022/08/22 02:26:18;;;;;;;8.68;3.28;;;13.40;99.90;;;;;;5047748;28;20041;-36
2022/08/22 02:28:53;;;;;;;4.57;2.67;;;13.40;99.90;;;;;;5047591;28;20095;-37
2022/08/22 02:31:43;;;;;;;6.28;2.90;;;14.20;99.90;;;;;;5047538;28;20040;-36
2022/08/22 02:34:24;;;;;;;8.18;3.45;;;13.40;99.90;;;;;;5046068;28;20047;-36
2022/08/22 02:37:13;;;;;;;4.95;2.92;;;13.30;99.90;;;;;;5047039;28;20040;-37
2022/08/22 02:40:08;;;;;;;7.30;3.00;;;13.80;99.90;;;;;;5044565;28;20415;-37
2022/08/22 02:42:59;;;;;;;5.78;2.65;;;13.20;99.90;;;;;;5046655;28;20514;-37
2022/08/22 02:45:25;;;;;;;5.90;3.88;;;13.10;99.90;;;;;;5046556;28;20040;-36
2022/08/22 02:48:15;;;;;;;7.57;3.80;;;13.40;99.90;;;;;;5046351;28;20051;-36
2022/08/22 02:50:55;;;;;;;9.88;4.13;;;13.20;99.90;;;;;;5046396;28;20427;-36
2022/08/22 02:53:51;;;;;;;9.32;3.92;;;13.10;99.90;;;;;;5046711;28;20044;-36
2022/08/22 02:56:49;;;;;;;7.82;4.15;;;12.80;99.90;;;;;;5043813;28;20065;-37
2022/08/22 02:59:54;;;;;;;11.38;4.47;;;12.80;99.90;;;;;;5046656;28;20056;-37
2022/08/22 03:02:45;;;;;;;8.63;4.10;;;12.80;99.90;;;;;;5046821;28;20051;-36
2022/08/22 03:05:16;;;;;;;8.35;3.55;;;12.70;99.90;;;;;;5046543;28;20122;-37
2022/08/22 03:08:12;;;;;;;6.22;3.70;;;12.90;99.90;;;;;;5045935;28;20068;-36
2022/08/22 03:10:44;;;;;;;7.70;3.17;;;12.60;99.90;;;;;;5036700;28;20060;-37
2022/08/22 03:13:48;;;;;;;5.93;2.58;;;12.90;99.90;;;;;;5046595;28;20045;-36
2022/08/22 03:16:25;;;;;;;3.15;2.35;;;12.40;99.90;;;;;;5023445;28;20053;-37
2022/08/22 03:19:02;;;;;;;4.15;2.05;;;12.60;99.90;;;;;;5043828;28;20103;-36
2022/08/22 03:21:31;;;;;;;3.83;2.15;;;12.50;99.90;;;;;;5046064;28;20483;-36
2022/08/22 03:24:19;;;;;;;3.50;2.13;;;13.10;99.90;;;;;;5046276;28;20136;-37
2022/08/22 03:27:00;;;;;;;3.28;2.03;;;12.50;99.90;;;;;;5045891;28;20616;-37
2022/08/22 03:29:55;;;;;;;3.43;2.27;;;12.70;99.90;;;;;;5046144;28;20071;-37
2022/08/22 03:32:41;;;;;;;3.17;2.00;;;13.10;99.90;;;;;;5045920;28;21350;-37
2022/08/22 03:35:35;;;;;;;4.13;2.50;;;12.40;99.90;;;;;;5046069;28;20359;-36
2022/08/22 03:38:33;;;;;;;3.40;1.95;;;12.40;99.90;;;;;;5046302;28;20102;-37
2022/08/22 03:41:19;;;;;;;4.05;2.60;;;12.40;99.90;;;;;;5046008;28;20057;-37
2022/08/22 03:44:13;;;;;;;4.70;2.65;;;12.40;99.90;;;;;;5046346;28;20049;-37
2022/08/22 03:47:04;;;;;;;3.05;2.05;;;12.30;99.90;;;;;;5045818;28;20477;-37
2022/08/22 03:49:34;;;;;;;5.82;3.35;;;12.40;99.90;;;;;;5045284;28;20049;-36
2022/08/22 03:52:18;;;;;;;5.03;2.53;;;12.50;99.90;;;;;;5045994;28;20493;-36
2022/08/22 03:54:47;;;;;;;4.60;3.20;;;12.50;99.90;;;;;;5045341;28;20098;-37
2022/08/22 03:57:34;;;;;;;2.00;1.08;;;12.50;99.90;;;;;;5046344;28;20047;-36
2022/08/22 04:00:27;;;;;;;3.72;1.98;;;12.50;99.90;;;;;;5049755;28;20151;-36
2022/08/22 04:02:56;;;;;;;4.25;2.10;;;12.50;99.90;;;;;;5050310;28;20056;-37
2022/08/22 04:05:24;;;;;;;7.28;2.30;;;13.10;99.90;;;;;;5049826;28;20371;-36
2022/08/22 04:08:19;;;;;;;4.40;2.70;;;12.50;99.90;;;;;;5049300;28;20053;-36
2022/08/22 04:11:07;;;;;;;4.55;3.10;;;12.40;99.90;;;;;;5049973;28;20378;-36
2022/08/22 04:14:10;;;;;;;5.95;3.70;;;12.50;99.90;;;;;;5049632;28;20041;-36
2022/08/22 04:16:53;;;;;;;7.13;3.45;;;12.40;99.90;;;;;;5049621;28;20036;-36
2022/08/22 04:19:25;;;;;;;5.38;3.25;;;12.50;99.90;;;;;;5049840;28;20060;-37
2022/08/22 04:22:11;;;;;;;5.90;3.80;;;12.50;99.90;;;;;;5049406;28;20045;-36
2022/08/22 04:25:13;;;;;;;4.55;2.85;;;12.50;99.90;;;;;;5049146;28;20380;-37
2022/08/22 04:27:56;;;;;;;;;;;12.50;99.90;;;;;;5049985;28;20047;-37
2022/08/22 04:30:31;;;;;;;6.22;2.20;;;12.60;99.90;;;;;;5049685;28;20018;-36
2022/08/22 04:33:03;;;;;;;3.67;2.35;;;13.30;99.90;;;;;;5049865;28;20041;-36
2022/08/22 04:35:48;;;;;;;7.60;3.03;;;12.60;99.90;;;;;;5049984;28;20115;-37
2022/08/22 04:38:25;;;;;;;5.28;2.35;;;13.40;99.90;;;;;;5049526;28;20045;-37
2022/08/22 04:41:09;;;;;;;9.27;3.47;;;13.10;99.90;;;;;;5048914;28;20049;-37
2022/08/22 04:44:00;;;;;;;7.78;3.42;;;12.80;99.90;;;;;;5049049;28;20051;-37
2022/08/22 04:46:51;;;;;;;11.02;5.00;;;12.80;99.90;;;;;;5049408;28;20048;-36
2022/08/22 04:49:40;;;;;;;6.00;4.20;;;12.80;99.90;;;;;;5049651;28;20126;-36
2022/08/22 04:52:26;;;;;;;7.00;4.20;;;12.90;99.90;;;;;;5049276;28;20036;-36
2022/08/22 04:55:00;;;;;;;6.10;4.05;;;13.40;99.90;;;;;;5048730;28;20104;-37
2022/08/22 04:57:36;;;;;;;8.00;4.22;;;12.90;99.90;;;;;;5049044;28;20041;-36
2022/08/22 05:00:06;;;;;;;9.15;4.72;;;13.10;99.90;;;;;;5048910;28;20044;-37
2022/08/22 05:02:36;;;;;;;6.13;4.22;;;13.10;99.90;;;;;;5049101;28;20080;-37
2022/08/22 05:05:11;;;;;;;13.32;4.85;;;13.60;99.90;;;;;;5047289;28;20516;-36
2022/08/22 05:07:48;;;;;;;12.15;5.35;;;14.10;99.90;;;;;;5048256;28;20645;-36
2022/08/22 05:10:26;;;;;;;7.88;5.05;;;13.30;99.90;;;;;;5047531;28;20053;-36
2022/08/22 05:13:01;;;;;;;7.90;4.32;;;13.30;99.90;;;;;;5048391;28;20120;-37
2022/08/22 05:15:35;;;;;;;6.75;3.38;;;13.60;99.90;;;;;;5048796;28;20037;-36
2022/08/22 05:18:08;;;;;;;5.47;3.83;;;13.40;99.90;;;;;;5047494;28;20053;-36
2022/08/22 05:20:36;;;;;;;7.45;4.45;;;13.80;99.90;;;;;;5048363;28;20449;-37
2022/08/22 05:23:31;;;;;;;4.50;3.95;;;13.70;99.90;;;;;;5048624;28;20053;-37
2022/08/22 05:26:01;;;;;;;7.57;4.28;;;13.80;99.90;;;;;;5046191;28;20099;-37
2022/08/22 05:28:49;;;;;;;6.95;3.95;;;14.10;99.90;;;;;;5048678;28;20126;-36
2022/08/22 05:31:20;;;;;;;6.55;4.45;;;14.10;99.90;;;;;;5048809;28;20059;-37
2022/08/22 05:33:50;;;;;;;11.23;5.93;;;13.80;99.90;;;;;;5048756;28;20053;-36
2022/08/22 05:36:29;;;;;;;10.60;5.72;;;14.30;99.90;;;;;;5048519;28;20060;-37
2022/08/22 05:39:06;;;;;;;6.88;5.90;;;14.20;99.90;;;;;;5048632;28;20414;-36
2022/08/22 05:41:39;;;;;;;14.10;7.72;;;14.40;99.90;;;;;;5048642;28;20089;-37
2022/08/22 05:44:24;;;;;;;15.15;9.68;;;14.30;99.90;;;;;;5048334;28;20060;-37
2022/08/22 05:47:12;;;;;;;14.70;8.48;;;14.50;99.90;;;;;;5047910;28;20045;-36
2022/08/22 05:50:00;;;;;;;13.45;8.70;;;14.60;99.90;;;;;;5048201;28;20045;-37
2022/08/22 05:52:55;;;;;;;15.18;9.15;;;14.80;99.90;;;;;;5048081;28;20052;-36
2022/08/22 05:55:31;;;;;;;12.45;8.52;;;14.90;99.90;;;;;;5048123;28;20047;-37
2022/08/22 05:58:36;;;;;;;16.73;12.10;;;15.10;99.90;;;;;;5047965;28;20044;-37
2022/08/22 06:01:16;;;;;;;19.15;10.93;;;15.20;99.90;;;;;;5047866;28;20052;-37
2022/08/22 06:04:03;;;;;;;15.48;11.35;;;15.40;99.90;;;;;;5047661;28;20134;-37
2022/08/22 06:06:32;;;;;;;16.25;10.80;;;15.80;99.90;;;;;;5026903;28;20052;-37
2022/08/22 06:09:25;;;;;;;14.13;10.43;;;15.60;99.90;;;;;;5047149;28;20443;-37
2022/08/22 06:12:22;;;;;;;17.75;10.60;;;15.70;99.90;;;;;;5047444;28;20102;-37
2022/08/22 06:15:21;;;;;;;15.38;10.90;;;15.70;99.90;;;;;;5047020;28;20557;-37
2022/08/22 06:18:05;;;;;;;13.52;9.75;;;15.80;99.90;;;;;;5047286;28;20033;-37
2022/08/22 06:20:44;;;;;;;19.55;10.27;;;15.90;99.90;;;;;;5046943;28;20505;-36
2022/08/22 06:23:17;;;;;;;15.77;9.93;;;15.90;99.90;;;;;;5047084;28;20438;-37
2022/08/22 06:25:46;;;;;;;13.60;10.85;;;16.00;99.90;;;;;;5047216;28;20056;-37
2022/08/22 06:28:18;;;;;;;16.90;10.25;;;16.00;99.90;;;;;;5047624;28;20040;-37
2022/08/22 06:30:45;;;;;;;11.80;10.02;;;16.10;99.90;;;;;;5047135;28;20049;-37
2022/08/22 06:33:16;;;;;;;10.60;8.95;;;16.10;99.90;;;;;;5047275;28;20041;-37
2022/08/22 06:38:51;;;;;;;15.40;9.90;;;16.30;99.90;;;;;;5047128;28;20051;-37
2022/08/22 06:41:20;;;;;;;16.75;9.15;;;16.60;99.90;;;;;;5047195;28;20052;-37
2022/08/22 06:43:51;;;;;;;14.00;8.90;;;16.60;99.90;;;;;;5046491;28;20037;-37
2022/08/22 06:46:19;;;;;;;15.98;8.38;;;16.60;99.90;;;;;;5046707;28;20143;-37
2022/08/22 06:48:45;;;;;;;14.27;9.15;;;16.70;99.90;;;;;;5047007;28;20475;-37
2022/08/22 06:51:14;;;;;;;12.40;8.90;;;15.40;99.90;;;;;;5047113;28;20102;-37
2022/08/22 06:53:48;;;;;;;13.90;8.32;;;16.80;99.90;;;;;;5046983;28;20044;-37
2022/08/22 06:56:20;;;;;;;16.73;9.00;;;16.90;99.90;;;;;;5046526;28;20044;-37
2022/08/22 06:58:49;;;;;;;14.18;7.60;;;16.90;99.90;;;;;;5046786;28;20043;-37
2022/08/22 07:01:20;;;;;;;11.77;7.90;;;17.00;99.90;;;;;;5046629;28;20052;-37
2022/08/22 07:03:50;;;;;;;14.32;7.70;;;17.00;99.90;;;;;;5046353;28;20049;-37
2022/08/22 07:06:28;;;;;;;13.32;7.63;;;17.00;99.90;;;;;;5046515;28;20048;-37
2022/08/22 07:08:55;;;;;;;13.23;7.55;;;17.10;99.90;;;;;;5046075;28;20063;-37
2022/08/22 07:11:30;;;;;;;12.63;7.63;;;17.20;99.90;;;;;;5046177;28;20049;-37
2022/08/22 07:14:01;;;;;;;11.68;7.28;;;17.20;99.90;;;;;;5045893;28;20469;-37
2022/08/22 07:16:39;;;;;;;11.35;6.47;;;17.20;99.90;;;;;;5046399;28;20049;-37
2022/08/22 07:19:07;;;;;;;13.98;6.75;;;17.20;99.90;;;;;;5046324;28;20378;-37
2022/08/22 07:21:46;;;;;;;10.60;6.53;;;17.30;99.90;;;;;;5046375;28;20056;-37
2022/08/22 07:24:20;;;;;;;13.80;6.60;;;17.30;99.90;;;;;;5046175;28;20045;-37
2022/08/22 07:27:21;;;;;;;10.88;6.47;;;17.30;99.90;;;;;;5046135;28;20040;-37
2022/08/22 07:29:57;;;;;;;11.55;5.90;;;17.40;99.90;;;;;;5045964;28;20552;-37
2022/08/22 07:32:49;;;;;;;10.82;5.95;;;17.50;99.90;;;;;;5045519;28;20044;-37
2022/08/22 07:35:19;;;;;;;13.55;6.47;;;17.50;99.90;;;;;;5044705;28;20075;-37
2022/08/22 07:38:29;;;;;;;11.43;6.53;;;17.40;99.90;;;;;;5045056;28;20051;-37
2022/08/22 07:41:15;;;;;;;17.48;6.82;;;17.60;99.90;;;;;;5046249;28;20048;-36
2022/08/22 07:43:44;;;;;;;13.90;6.35;;;17.70;99.90;;;;;;5045760;28;20056;-37
2022/08/22 07:46:28;;;;;;;12.68;6.20;;;17.70;99.90;;;;;;5045118;28;20049;-37
2022/08/22 07:49:14;;;;;;;14.57;6.00;;;17.80;99.90;;;;;;5046008;28;20608;-37
2022/08/22 07:51:46;;;;;;;12.48;5.72;;;17.90;99.90;;;;;;5046181;28;20041;-37
2022/08/22 07:54:15;;;;;;;11.85;6.03;;;18.00;99.90;;;;;;5045841;28;20372;-37
2022/08/22 07:57:06;;;;;;;14.52;6.10;;;18.30;99.90;;;;;;5045766;28;20041;-37
2022/08/22 07:59:35;;;;;;;16.92;6.68;;;18.20;99.90;;;;;;5043077;28;20053;-37
2022/08/22 08:02:09;;;;;;;18.65;5.72;;;18.30;99.90;;;;;;5045492;28;20052;-37
2022/08/22 08:04:37;;;;;;;15.85;5.68;;;18.40;99.90;;;;;;5046274;28;20106;-37
2022/08/22 08:07:07;;;;;;;11.38;4.88;;;18.40;99.90;;;;;;5045706;28;20070;-38
2022/08/22 08:09:39;;;;;;;13.73;4.80;;;18.50;99.90;;;;;;5046119;28;20127;-37
2022/08/22 08:12:08;;;;;;;15.43;5.07;;;18.60;99.90;;;;;;5045845;28;20041;-37
2022/08/22 08:14:38;;;;;;;14.75;5.60;;;18.70;99.90;;;;;;5045693;28;20045;-37
2022/08/22 08:17:24;;;;;;;12.38;6.25;;;19.00;99.90;;;;;;5045654;28;20668;-37
2022/08/22 08:19:50;;;;;;;17.35;6.43;;;19.00;99.90;;;;;;5045932;28;20145;-37
2022/08/22 08:22:21;;;;;;;11.30;5.53;;;19.20;99.90;;;;;;5045709;28;20045;-37
2022/08/22 08:24:49;;;;;;;13.38;5.85;;;19.20;99.90;;;;;;5046398;28;20370;-37
2022/08/22 08:30:15;;;;;;;9.07;5.70;;;19.30;99.90;;;;;;5046132;28;20049;-37
2022/08/22 08:32:46;;;;;;;15.45;6.10;;;19.40;99.90;;;;;;5046219;28;20512;-37
2022/08/22 08:35:28;;;;;;;14.73;5.77;;;19.50;99.90;;;;;;5046342;28;20420;-37
2022/08/22 08:38:01;;;;;;;9.80;4.93;;;19.70;99.90;;;;;;5046410;28;20048;-37
2022/08/22 08:40:55;;;;;;;15.88;4.60;;;19.80;99.90;;;;;;5045852;28;20455;-37
2022/08/22 08:43:26;;;;;;;12.48;5.00;;;20.00;99.90;;;;;;5045366;28;20049;-37
2022/08/22 08:46:16;;;;;;;8.38;4.13;;;20.00;99.90;;;;;;5048501;28;20086;-37
2022/08/22 08:49:20;;;;;;;12.95;5.68;;;20.10;99.90;;;;;;5048706;28;20045;-37
2022/08/22 08:51:46;;;;;;;13.38;5.78;;;20.20;99.90;;;;;;5048971;28;20390;-37
2022/08/22 08:54:28;;;;;;;13.02;4.03;;;20.30;99.90;;;;;;5049409;28;20028;-37
2022/08/22 08:57:18;;;;;;;10.85;4.63;;;20.50;99.90;;;;;;5049685;28;20106;-37
2022/08/22 08:59:58;;;;;;;12.00;4.97;;;20.60;99.90;;;;;;5048655;28;20487;-37
2022/08/22 09:02:48;;;;;;;12.32;4.75;;;20.80;99.90;;;;;;5048554;28;20044;-37
2022/08/22 09:05:14;;;;;;;12.20;4.63;;;20.90;99.90;;;;;;5046477;28;20045;-37
2022/08/22 09:08:01;;;;;;;10.65;3.67;;;20.90;99.90;;;;;;5048271;28;20052;-37
2022/08/22 09:10:33;;;;;;;9.98;4.03;;;21.00;99.90;;;;;;5048159;28;20088;-37
2022/08/22 09:13:10;;;;;;;9.65;4.00;;;20.90;99.90;;;;;;5048183;28;20491;-37
2022/08/22 09:16:08;;;;;;;11.98;5.25;;;20.90;99.90;;;;;;5048375;28;20163;-37
2022/08/22 09:18:46;;;;;;;13.60;5.13;;;20.90;99.90;;;;;;5047933;28;20052;-37
2022/08/22 09:21:20;;;;;;;12.60;5.32;;;21.10;99.90;;;;;;5048073;28;20040;-37
2022/08/22 09:24:20;;;;;;;13.98;3.85;;;21.50;99.90;;;;;;5048410;28;20266;-37
2022/08/22 09:26:53;;;;;;;8.75;4.88;;;22.60;99.90;;;;;;5047960;28;20048;-37
2022/08/22 09:29:38;;;;;;;11.45;4.80;;;23.30;99.90;;;;;;5048430;28;20394;-37
2022/08/22 09:32:28;;;;;;;11.80;4.80;;;23.70;99.90;;;;;;5047891;28;20087;-37
2022/08/22 09:35:02;;;;;;;11.95;5.00;;;24.10;97.70;;;;;;5047666;28;20577;-37
2022/08/22 09:37:55;;;;;;;14.90;5.22;;;24.30;97.00;;;;;;5047692;28;20478;-37
2022/08/22 09:40:34;;;;;;;8.50;3.53;;;24.40;96.80;;;;;;5048023;28;20124;-38
2022/08/22 09:43:05;;;;;;;8.77;3.05;;;24.70;95.60;;;;;;5047859;28;20439;-37
2022/08/22 09:45:36;;;;;;;10.70;3.65;;;25.00;95.70;;;;;;5048142;28;20045;-37
2022/08/22 09:48:37;;;;;;;14.35;3.95;;;25.10;94.30;;;;;;5047489;28;20075;-37
2022/08/22 09:51:33;;;;;;;9.93;3.38;;;25.30;92.60;;;;;;5040941;28;20053;-37
2022/08/22 09:54:14;;;;;;;14.52;3.72;;;25.70;91.30;;;;;;5045866;28;20406;-38
2022/08/22 09:57:17;;;;;;;9.85;3.35;;;26.00;91.30;;;;;;5047511;28;20049;-37
2022/08/22 09:59:49;;;;;;;9.02;2.85;;;26.60;89.70;;;;;;5046411;28;20091;-38
2022/08/22 10:02:22;;;;;;;10.45;2.35;;;26.70;88.50;;;;;;5047400;28;20386;-37
2022/08/22 10:04:56;;;;;;;7.63;2.35;;;26.70;87.40;;;;;;5047604;28;20036;-38
2022/08/22 10:07:28;;;;;;;8.57;2.53;;;27.20;85.80;;;;;;5046986;28;20049;-38
2022/08/22 10:10:17;;;;;;;;;;;27.90;82.80;;;;;;5048079;28;20143;-38
2022/08/22 10:12:53;;;;;;;9.27;2.50;;;28.00;80.00;;;;;;5047792;28;19920;-38
2022/08/22 10:15:48;;;;;;;5.32;1.45;;;28.00;80.30;;;;;;5047476;28;20120;-37
2022/08/22 10:18:40;;;;;;;11.43;2.33;;;27.40;75.80;;;;;;5047078;28;20076;-38
2022/08/22 10:21:24;;;;;;;;;;;27.00;76.50;;;;;;5048169;28;20413;-37
2022/08/22 10:23:55;;;;;;;6.43;1.23;;;26.60;78.50;;;;;;5047948;28;20054;-37
2022/08/22 10:26:43;;;;;;;8.57;1.90;;;26.20;81.80;;;;;;5045785;28;20573;-43
2022/08/22 10:29:46;;;;;;;9.50;1.80;;;25.70;81.70;;;;;;5039525;28;20387;-38
2022/08/22 10:32:24;;;;;;;9.02;2.10;;;25.30;80.30;;;;;;5044058;28;20079;-39
2022/08/22 10:35:05;;;;;;;5.60;2.00;;;25.00;83.10;;;;;;5045922;28;20383;-38
2022/08/22 10:37:38;;;;;;;7.30;1.83;;;24.70;83.40;;;;;;5045758;28;20434;-39
2022/08/22 10:40:25;;;;;;;7.57;2.00;;;24.60;86.00;;;;;;5045413;28;20052;-39
2022/08/22 10:42:56;;;;;;;6.03;1.33;;;24.60;87.20;;;;;;5045605;28;20071;-38
2022/08/22 10:45:28;;;;;;;11.60;1.77;;;24.50;86.40;;;;;;5045130;28;20068;-40
2022/08/22 10:47:57;;;;;;;10.50;1.40;;;24.40;86.00;;;;;;5045314;28;20113;-38
2022/08/22 10:50:28;;;;;;;6.45;1.40;;;24.30;87.10;;;;;;5044960;28;20049;-41
2022/08/22 10:53:28;;;;;;;;;;;24.20;85.50;;;;;;5045742;28;20407;-40
2022/08/22 10:55:46;;;;;;;7.38;1.05;;;24.10;85.50;;;;;;5044870;28;20315;-40
2022/08/22 10:58:17;;;;;;;7.07;1.33;;;24.00;86.40;;;;;;5045072;28;20792;-40
2022/08/22 11:00:55;;;;;;;6.22;1.20;;;23.90;87.00;;;;;;5044993;28;20494;-38
2022/08/22 11:03:42;;;;;;;8.55;0.98;;;24.00;87.80;;;;;;5045194;28;20044;-38
2022/08/22 11:06:19;;;;;;;5.97;1.23;;;23.90;87.90;;;;;;5045349;28;20044;-38
2022/08/22 11:09:12;;;;;;;6.72;1.20;;;24.00;88.20;;;;;;5043727;28;20061;-38
2022/08/22 11:11:53;;;;;;;6.43;0.98;;;24.00;87.00;;;;;;5044670;28;20518;-38
2022/08/22 11:14:32;;;;;;;7.80;1.20;;;23.80;87.40;;;;;;5044731;28;20099;-38
2022/08/22 11:17:17;;;;;;;5.50;1.23;;;23.80;86.60;;;;;;5044798;28;20041;-38
2022/08/22 11:20:13;;;;;;;7.90;1.85;;;23.70;86.40;;;;;;5045082;28;20045;-38
2022/08/22 11:22:50;;;;;;;8.52;1.67;;;23.60;87.10;;;;;;5045057;28;20037;-38
2022/08/22 11:25:29;;;;;;;6.38;1.10;;;23.60;87.50;;;;;;5043172;28;20041;-38
2022/08/22 11:28:03;;;;;;;6.65;1.60;;;23.50;88.60;;;;;;5044361;28;20052;-38
2022/08/22 11:31:06;;;;;;;6.82;1.83;;;23.50;88.40;;;;;;5044745;28;20059;-38
2022/08/22 11:33:41;;;;;;;7.57;1.58;;;23.70;87.60;;;;;;5044822;28;20437;-38
2022/08/22 11:36:34;;;;;;;9.95;1.48;;;23.70;87.70;;;;;;5045083;28;20048;-38
2022/08/22 11:39:24;;;;;;;5.88;1.13;;;23.90;86.60;;;;;;5044676;28;20457;-38
2022/08/22 11:41:50;;;;;;;7.65;1.13;;;24.10;87.00;;;;;;5044799;28;20041;-38
2022/08/22 11:44:24;;;;;;;8.32;1.10;;;24.10;85.60;;;;;;5044830;28;20037;-38
2022/08/22 11:46:54;;;;;;;5.22;0.95;;;24.30;85.90;;;;;;5044739;28;20037;-38
2022/08/22 11:49:38;;;;;;;7.97;1.92;;;24.40;84.70;;;;;;5044830;28;20080;-38
2022/08/22 11:52:45;;;;;;;3.90;0.80;;;24.50;84.10;;;;;;5044410;28;20079;-38
2022/08/22 11:55:15;;;;;;;5.97;1.42;;;24.50;84.20;;;;;;5044502;28;20435;-38
2022/08/22 11:57:41;;;;;;;4.28;0.88;;;24.50;85.50;;;;;;5044748;28;20072;-38
2022/08/22 12:00:17;;;;;;;5.47;0.75;;;24.50;85.50;;;;;;5044473;28;20048;-38
2022/08/22 12:03:18;;;;;;;5.75;1.00;;;24.50;85.40;;;;;;5044166;28;20372;-38
2022/08/22 12:05:49;;;;;;;7.05;1.00;;;24.50;84.80;;;;;;5044280;28;20522;-38
2022/08/22 12:08:33;;;;;;;8.95;1.52;;;24.30;84.80;;;;;;5044519;28;20059;-38
2022/08/22 12:11:18;;;;;;;5.95;0.82;;;24.20;85.70;;;;;;5044542;28;20344;-38
2022/08/22 12:13:48;;;;;;;6.05;1.00;;;24.20;85.60;;;;;;5044502;28;20280;-38
2022/08/22 12:16:48;;;;;;;5.82;1.08;;;24.10;84.50;;;;;;5044295;28;20033;-38
2022/08/22 12:19:29;;;;;;;6.53;1.25;;;24.00;85.50;;;;;;5037415;28;20049;-38
2022/08/22 12:22:34;;;;;;;6.78;1.65;;;24.00;85.90;;;;;;5046498;28;20421;-38
2022/08/22 12:25:14;;;;;;;7.30;1.77;;;24.00;85.20;;;;;;5047710;28;20377;-38
2022/08/22 12:28:04;;;;;;;4.88;1.15;;;24.10;86.00;;;;;;5047564;28;20550;-38
2022/08/22 12:31:01;;;;;;;4.50;1.08;;;24.20;85.40;;;;;;5047587;28;20044;-38
2022/08/22 12:33:40;;;;;;;6.40;1.55;;;24.20;86.30;;;;;;5038608;28;20045;-38
2022/08/22 12:36:23;;;;;;;5.55;1.30;;;24.20;84.50;;;;;;5047987;28;20066;-38
2022/08/22 12:39:14;;;;;;;5.75;1.30;;;24.20;85.30;;;;;;5048361;28;20395;-38
2022/08/22 12:42:06;;;;;;;8.48;1.95;;;24.20;86.10;;;;;;5048092;28;20392;-38
2022/08/22 12:44:49;;;;;;;7.47;1.35;;;24.20;85.90;;;;;;5047427;28;20499;-39
2022/08/22 12:47:30;;;;;;;4.82;1.13;;;24.30;84.20;;;;;;5047675;28;20084;-38
2022/08/22 12:50:20;;;;;;;7.80;1.70;;;24.30;86.30;;;;;;5047653;28;20411;-38
2022/08/22 12:53:33;;;;;;;6.82;1.50;;;24.30;85.90;;;;;;5047441;28;20040;-38
2022/08/22 12:56:12;;;;;;;6.97;1.02;;;24.40;86.70;;;;;;5010347;28;20049;-38
2022/08/22 12:58:40;;;;;;;6.70;1.50;;;24.60;86.40;;;;;;5047375;28;20037;-38
2022/08/22 13:01:07;;;;;;;5.55;0.88;;;24.70;85.70;;;;;;5047222;28;20088;-39
2022/08/22 13:03:49;;;;;;;9.00;1.50;;;24.90;85.60;;;;;;5047734;28;20105;-38
2022/08/22 13:06:35;;;;;;;5.60;1.02;;;25.00;84.80;;;;;;5048184;28;20041;-38
2022/08/22 13:09:18;;;;;;;8.40;1.17;;;25.10;83.70;;;;;;5047629;28;20065;-39
2022/08/22 13:11:48;;;;;;;8.25;1.27;;;25.10;84.70;;;;;;5047525;28;20096;-38
2022/08/22 13:14:19;;;;;;;4.57;1.05;;;24.90;84.10;;;;;;5047561;28;20056;-38
2022/08/22 13:16:51;;;;;;;5.07;1.15;;;24.70;83.90;;;;;;5047775;28;20152;-38
2022/08/22 13:19:21;;;;;;;6.35;1.45;;;24.50;84.70;;;;;;5047763;28;20045;-38
2022/08/22 13:22:09;;;;;;;5.63;1.67;;;24.30;84.50;;;;;;5047691;28;20041;-38
2022/08/22 13:24:37;;;;;;;7.95;1.25;;;24.30;84.90;;;;;;5047478;28;20037;-38
2022/08/22 13:27:19;;;;;;;4.72;0.95;;;24.20;85.50;;;;;;5047357;28;20048;-38
2022/08/22 13:30:00;;;;;;;4.30;1.23;;;24.10;84.90;;;;;;5045423;28;20214;-38
2022/08/22 13:32:32;;;;;;;;;;;24.00;86.20;;;;;;5047613;28;20052;-38
2022/08/22 13:34:59;;;;;;;9.35;1.70;;;23.90;85.70;;;;;;5046795;28;19928;-38
2022/08/22 13:37:33;;;;;;;5.75;1.10;;;23.80;86.60;;;;;;5046851;28;20076;-38
2022/08/22 13:40:04;;;;;;;8.10;1.83;;;23.80;85.40;;;;;;5047072;28;20078;-38
2022/08/22 13:42:34;;;;;;;6.57;1.80;;;23.60;85.50;;;;;;5047580;28;20048;-38
2022/08/22 13:45:09;;;;;;;5.45;0.75;;;23.50;85.80;;;;;;5046848;28;20040;-39
2022/08/22 13:47:45;;;;;;;5.63;1.20;;;23.60;86.60;;;;;;5046570;28;20487;-39
2022/08/22 13:50:17;;;;;;;6.57;1.42;;;23.60;86.70;;;;;;5046330;28;20558;-38
2022/08/22 13:52:48;;;;;;;8.52;1.92;;;23.50;86.20;;;;;;5046126;28;20633;-38
2022/08/22 13:55:29;;;;;;;6.00;1.23;;;23.40;85.60;;;;;;5046346;28;20102;-38
2022/08/22 13:58:00;;;;;;;7.13;1.50;;;23.30;86.00;;;;;;5045923;28;20044;-38
2022/08/22 14:01:10;;;;;;;10.32;1.65;;;23.20;88.00;;;;;;5046108;28;20080;-38
2022/08/22 14:03:42;;;;;;;6.72;2.13;;;23.10;89.10;;;;;;5022747;28;20056;-40